Rechercher aéroport 
image banner adimage banner ad
image banner ad

FYTATA - Tatave Pan

Situé à , Namibia

ICAO - , IATA -

Données fournies par Airmate  

Information générale

Coordonnées: S24°23'24" E18°40'5"
Élévation : 4265 feet MSL.
 
Voir autres Aéroports à Hardap

Données opérationnelles

Accessible au public
Heure actuelle UTC:
Heure actuelle locale:
Météo à : FYML - Mariental ( 79 km )
METAR: FYML 252300Z AUTO 17007KT //// // ////// 28/16 Q1016
Voir NOTAMs / SUP AIP / TFR affectant cet aéroport [VIEW]
Fréquences de communication: [VIEW]

Pistes:

Identifiant RWYQFULongueur (ft)Largeur (ft)SurfaceLDA (ft)
09-1°984164GRASS
27-1°984164GRASS

Coordonnées de l'aéroport

Adresse: Namibia

Vue satellite de FYTATA